Time;durP1;ratioP1;P1;durP2;ratioP2;P2;SDS_P1;SDS_P2;PMS_P1;PMS_P2;Temp;Humidity;BMP_temperature;BMP_pressure;BME280_temperature;BME280_humidity;BME280_pressure;Samples;Min_cycle;Max_cycle;Signal;HPM_P1;HPM_P2
2022/09/14 00:01:16;;;;;;;7.20;1.55;;;19.60;91.60;;;;;;4965869;28;20027;-73
2022/09/14 00:03:43;;;;;;;6.63;1.35;;;19.70;91.60;;;;;;4979950;28;20055;-74
2022/09/14 00:06:14;;;;;;;8.85;1.60;;;19.60;91.50;;;;;;4979922;28;20053;-75
2022/09/14 00:08:41;;;;;;;12.27;1.48;;;19.50;91.50;;;;;;4980154;28;20030;-74
2022/09/14 00:11:12;;;;;;;8.65;0.98;;;19.60;91.40;;;;;;4978632;28;20081;-74
2022/09/14 00:13:40;;;;;;;9.30;2.08;;;19.60;91.50;;;;;;4976558;28;20033;-73
2022/09/14 00:16:12;;;;;;;6.05;1.20;;;19.50;91.50;;;;;;4980853;28;20057;-73
2022/09/14 00:18:37;;;;;;;9.05;1.05;;;19.60;91.40;;;;;;4980964;28;20034;-72
2022/09/14 00:21:07;;;;;;;7.03;1.13;;;19.60;91.50;;;;;;4979333;28;20027;-74
2022/09/14 00:23:37;;;;;;;5.50;1.10;;;19.60;91.50;;;;;;4977952;28;20023;-73
2022/09/14 00:26:15;;;;;;;7.57;1.85;;;19.60;91.40;;;;;;4981058;28;20042;-75
2022/09/14 00:28:47;;;;;;;10.18;1.45;;;19.60;91.90;;;;;;4978846;28;20037;-73
2022/09/14 00:31:14;;;;;;;8.20;1.27;;;19.50;91.40;;;;;;4982201;28;20496;-69
2022/09/14 00:33:43;;;;;;;5.70;1.35;;;19.50;91.50;;;;;;4978765;28;20031;-73
2022/09/14 00:36:14;;;;;;;7.80;1.45;;;19.50;91.50;;;;;;4983658;28;20355;-73
2022/09/14 00:38:48;;;;;;;5.15;1.10;;;19.40;91.50;;;;;;4979275;28;20022;-73
2022/09/14 00:41:19;;;;;;;5.53;1.50;;;19.40;91.70;;;;;;4981625;28;20057;-73
2022/09/14 00:44:00;;;;;;;10.43;1.23;;;19.50;91.70;;;;;;4981943;28;20027;-74
2022/09/14 00:46:30;;;;;;;5.85;1.10;;;19.50;91.50;;;;;;4982031;28;20042;-70
2022/09/14 00:48:59;;;;;;;7.63;1.15;;;19.50;91.60;;;;;;4978778;28;20132;-73
2022/09/14 00:51:26;;;;;;;8.30;1.42;;;19.40;91.70;;;;;;4982848;28;20309;-73
2022/09/14 00:53:52;;;;;;;7.50;1.38;;;19.40;92.10;;;;;;4981811;28;20457;-72
2022/09/14 00:56:18;;;;;;;13.38;2.00;;;19.40;91.80;;;;;;4980592;28;20030;-73
2022/09/14 00:58:47;;;;;;;4.90;1.00;;;19.30;91.90;;;;;;4981764;28;20050;-75
2022/09/14 01:01:14;;;;;;;7.68;1.10;;;19.30;91.90;;;;;;4982146;28;20085;-74
2022/09/14 01:03:43;;;;;;;4.40;1.00;;;19.20;91.90;;;;;;4982086;28;20031;-75
2022/09/14 01:06:27;;;;;;;14.23;1.40;;;19.30;91.80;;;;;;4987464;28;20109;-74
2022/09/14 01:09:08;;;;;;;7.30;1.10;;;19.30;91.90;;;;;;4983805;28;20157;-73
2022/09/14 01:12:35;;;;;;;5.85;1.05;;;19.20;91.90;;;;;;4983605;28;20454;-74
2022/09/14 01:15:30;;;;;;;6.30;1.38;;;19.20;92.10;;;;;;4941153;29;20354;-76
2022/09/14 01:18:14;;;;;;;2.42;0.93;;;19.20;92.00;;;;;;4949891;29;20035;-77
2022/09/14 01:20:46;;;;;;;10.80;1.25;;;19.20;91.90;;;;;;4952167;28;20552;-78
2022/09/14 01:23:23;;;;;;;9.47;1.27;;;19.30;91.90;;;;;;4951773;29;20031;-76
2022/09/14 01:26:08;;;;;;;8.45;1.33;;;19.20;91.80;;;;;;4934620;29;20773;-79
2022/09/14 01:29:00;;;;;;;6.50;1.40;;;19.20;91.90;;;;;;4952294;29;20035;-78
2022/09/14 01:31:52;;;;;;;6.53;1.93;;;19.20;92.30;;;;;;4951418;29;20027;-76
2022/09/14 01:34:31;;;;;;;6.53;1.20;;;19.20;91.80;;;;;;4950480;29;20034;-73
2022/09/14 01:37:29;;;;;;;10.68;1.05;;;19.20;91.90;;;;;;4950409;29;20079;-73
2022/09/14 01:40:06;;;;;;;3.38;1.02;;;19.20;91.90;;;;;;4953601;29;20190;-74
2022/09/14 01:42:39;;;;;;;7.32;1.50;;;19.20;91.80;;;;;;4956580;29;20027;-72
2022/09/14 01:45:12;;;;;;;4.97;1.13;;;19.10;92.00;;;;;;4970501;28;20042;-71
2022/09/14 01:47:45;;;;;;;6.28;1.05;;;19.10;92.00;;;;;;4988730;28;20081;-73
2022/09/14 01:50:23;;;;;;;6.53;1.30;;;19.10;92.00;;;;;;4991981;28;20030;-69
2022/09/14 01:52:58;;;;;;;4.43;1.08;;;19.10;92.00;;;;;;4985383;28;20089;-73
2022/09/14 01:55:32;;;;;;;9.43;0.90;;;19.10;92.30;;;;;;4981982;28;20027;-71
2022/09/14 01:58:08;;;;;;;8.02;1.20;;;19.10;92.20;;;;;;4978823;28;20034;-73
2022/09/14 02:00:38;;;;;;;9.80;1.38;;;19.10;92.20;;;;;;4978897;28;20034;-71
2022/09/14 02:03:17;;;;;;;10.60;1.10;;;19.10;92.30;;;;;;4982933;28;20105;-71
2022/09/14 02:05:52;;;;;;;13.48;1.40;;;19.00;92.60;;;;;;4976568;28;20041;-72
2022/09/14 02:08:20;;;;;;;7.68;1.25;;;19.10;92.90;;;;;;4979413;28;20526;-75
2022/09/14 02:10:45;;;;;;;8.43;1.80;;;19.00;93.30;;;;;;4979621;28;20049;-76
2022/09/14 02:13:11;;;;;;;6.90;1.23;;;19.00;93.30;;;;;;4981435;28;20038;-72
2022/09/14 02:15:38;;;;;;;6.60;1.13;;;18.90;93.50;;;;;;4978753;28;20053;-70
2022/09/14 02:18:04;;;;;;;10.50;1.20;;;18.90;93.70;;;;;;4979375;28;20082;-68
2022/09/14 02:21:04;;;;;;;5.50;1.50;;;18.90;94.20;;;;;;4982436;28;20030;-75
2022/09/14 02:23:36;;;;;;;4.88;0.93;;;18.90;94.50;;;;;;4980535;28;20523;-73
2022/09/14 02:26:03;;;;;;;3.80;0.90;;;18.80;94.30;;;;;;4985096;28;20030;-73
2022/09/14 02:28:29;;;;;;;5.30;1.17;;;18.90;94.40;;;;;;4989014;28;20034;-72
2022/09/14 02:31:18;;;;;;;4.53;1.05;;;18.80;94.40;;;;;;4978600;28;20459;-73
2022/09/14 02:34:12;;;;;;;11.27;1.80;;;18.70;94.70;;;;;;4980018;28;20023;-74
2022/09/14 02:36:40;;;;;;;;;;;18.70;94.70;;;;;;4983070;28;20066;-73
2022/09/14 02:39:18;;;;;;;10.15;1.15;;;18.70;94.80;;;;;;4977496;28;19944;-73
2022/09/14 02:42:02;;;;;;;5.60;1.20;;;18.70;94.80;;;;;;4981895;28;20657;-73
2022/09/14 02:44:44;;;;;;;7.25;1.40;;;18.70;94.90;;;;;;4982192;28;20107;-75
2022/09/14 02:47:27;;;;;;;8.23;1.45;;;18.60;95.00;;;;;;4983931;28;20109;-73
2022/09/14 02:50:17;;;;;;;6.47;1.20;;;18.60;95.10;;;;;;4979982;28;20034;-71
2022/09/14 02:53:11;;;;;;;8.18;1.27;;;18.60;95.20;;;;;;4981265;28;20041;-72
2022/09/14 02:55:46;;;;;;;9.00;1.30;;;18.60;95.40;;;;;;4981500;28;20169;-73
2022/09/14 02:58:15;;;;;;;8.70;1.30;;;18.50;95.70;;;;;;4980497;28;20034;-73
2022/09/14 03:00:44;;;;;;;5.53;1.35;;;18.50;96.00;;;;;;4978903;28;20348;-73
2022/09/14 03:03:12;;;;;;;9.27;1.67;;;18.50;96.30;;;;;;4975355;28;20496;-73
2022/09/14 03:05:38;;;;;;;9.63;1.42;;;18.50;96.40;;;;;;4977699;28;20620;-73
2022/09/14 03:08:04;;;;;;;8.63;1.50;;;18.40;96.70;;;;;;4980937;28;20539;-72
2022/09/14 03:10:33;;;;;;;7.55;1.27;;;18.40;96.70;;;;;;4979415;28;20147;-78
2022/09/14 03:12:59;;;;;;;3.65;1.25;;;18.40;97.10;;;;;;4983568;28;20384;-78
2022/09/14 03:15:26;;;;;;;8.48;1.20;;;18.30;97.30;;;;;;4981944;28;20023;-77
2022/09/14 03:17:52;;;;;;;7.78;1.60;;;18.30;97.00;;;;;;4986797;28;20035;-73
2022/09/14 03:20:23;;;;;;;6.28;1.38;;;18.40;97.40;;;;;;4975002;28;20050;-76
2022/09/14 03:22:51;;;;;;;5.07;1.08;;;18.30;97.50;;;;;;4983062;28;20110;-73
2022/09/14 03:25:22;;;;;;;4.10;1.05;;;18.30;97.90;;;;;;4981432;28;20033;-76
2022/09/14 03:27:49;;;;;;;6.50;1.40;;;18.20;97.70;;;;;;4984006;28;20045;-74
2022/09/14 03:30:18;;;;;;;3.42;1.38;;;18.20;97.80;;;;;;4975350;28;20037;-75
2022/09/14 03:32:44;;;;;;;4.72;1.17;;;18.10;97.90;;;;;;4977856;28;20026;-76
2022/09/14 03:35:11;;;;;;;8.18;1.50;;;18.10;98.40;;;;;;4977211;28;20367;-71
2022/09/14 03:37:38;;;;;;;11.40;1.35;;;18.10;98.40;;;;;;4979734;28;20625;-73
2022/09/14 03:40:07;;;;;;;8.32;1.50;;;18.00;98.60;;;;;;4979419;28;20058;-73
2022/09/14 03:42:34;;;;;;;8.82;1.73;;;18.10;98.70;;;;;;4978239;28;20121;-73
2022/09/14 03:45:00;;;;;;;9.02;1.40;;;18.00;98.60;;;;;;4978679;28;20026;-74
2022/09/14 03:47:27;;;;;;;3.88;1.10;;;18.00;98.40;;;;;;4979735;28;20034;-73
2022/09/14 03:49:56;;;;;;;6.53;1.17;;;18.00;98.60;;;;;;4978864;28;20038;-74
2022/09/14 03:52:24;;;;;;;11.45;1.83;;;18.00;98.70;;;;;;4989416;28;20057;-73
2022/09/14 03:54:49;;;;;;;7.65;1.35;;;18.10;98.80;;;;;;4977882;28;20035;-74
2022/09/14 03:57:17;;;;;;;7.65;1.55;;;18.10;99.20;;;;;;4982305;28;20034;-74
2022/09/14 03:59:43;;;;;;;12.80;1.45;;;18.10;98.90;;;;;;4977647;28;20039;-71
2022/09/14 04:02:08;;;;;;;7.80;2.03;;;18.10;98.90;;;;;;4982195;28;20033;-72
2022/09/14 04:04:37;;;;;;;4.80;0.90;;;18.10;98.70;;;;;;4981179;28;20019;-73
2022/09/14 04:07:05;;;;;;;7.65;1.33;;;18.00;98.80;;;;;;4979003;28;20026;-72
2022/09/14 04:09:30;;;;;;;3.10;1.20;;;17.90;98.80;;;;;;4978058;28;20030;-75
2022/09/14 04:11:59;;;;;;;7.70;1.27;;;17.90;98.90;;;;;;4982136;28;20766;-73
2022/09/14 04:14:25;;;;;;;11.40;1.40;;;18.00;98.90;;;;;;4985222;28;20037;-73
2022/09/14 04:16:50;;;;;;;4.05;1.48;;;18.00;98.70;;;;;;4980664;28;20026;-74
2022/09/14 04:19:16;;;;;;;14.90;1.77;;;17.90;98.90;;;;;;4981996;28;20026;-70
2022/09/14 04:21:44;;;;;;;15.05;1.30;;;17.90;98.80;;;;;;4982484;28;20038;-73
2022/09/14 04:24:12;;;;;;;4.65;1.25;;;17.90;99.00;;;;;;4979437;28;20149;-75
2022/09/14 04:26:38;;;;;;;8.98;2.17;;;17.90;98.90;;;;;;4979497;28;20033;-73
2022/09/14 04:29:07;;;;;;;11.85;1.40;;;17.90;98.80;;;;;;4983190;28;20348;-73
2022/09/14 04:31:33;;;;;;;6.30;1.67;;;17.90;99.20;;;;;;4980751;28;20091;-72
2022/09/14 04:33:59;;;;;;;3.45;1.33;;;18.00;98.90;;;;;;4979890;28;20022;-74
2022/09/14 04:36:28;;;;;;;6.82;1.33;;;18.00;98.80;;;;;;4979543;28;20041;-72
2022/09/14 04:38:55;;;;;;;4.28;1.10;;;17.90;98.90;;;;;;4979688;28;20416;-73
2022/09/14 04:41:21;;;;;;;5.20;1.38;;;17.90;99.00;;;;;;4979114;28;20314;-74
2022/09/14 04:43:49;;;;;;;6.85;1.52;;;18.00;99.00;;;;;;4979042;28;20706;-72
2022/09/14 04:46:29;;;;;;;6.97;2.15;;;17.90;99.10;;;;;;4981207;28;20109;-74
2022/09/14 04:48:57;;;;;;;7.00;1.83;;;17.90;99.20;;;;;;4981500;28;20090;-71
2022/09/14 04:51:26;;;;;;;6.18;1.50;;;17.80;99.40;;;;;;4980954;28;20026;-72
2022/09/14 04:53:55;;;;;;;7.60;1.83;;;17.80;99.90;;;;;;4976809;28;20048;-73
2022/09/14 04:56:22;;;;;;;8.30;1.50;;;17.80;99.90;;;;;;4981455;28;20036;-73
2022/09/14 04:58:52;;;;;;;11.05;1.98;;;17.70;99.90;;;;;;4979798;28;20030;-72
2022/09/14 05:01:23;;;;;;;9.45;2.30;;;17.70;99.90;;;;;;4979808;28;20022;-69
2022/09/14 05:03:49;;;;;;;7.93;1.63;;;17.70;99.90;;;;;;4992048;28;20052;-72
2022/09/14 05:06:20;;;;;;;5.13;1.70;;;17.80;99.90;;;;;;4978527;28;20051;-73
2022/09/14 05:08:46;;;;;;;10.75;1.70;;;17.70;99.90;;;;;;4983379;28;20031;-72
2022/09/14 05:11:19;;;;;;;3.38;1.70;;;17.70;99.90;;;;;;4978211;28;20030;-73
2022/09/14 05:13:45;;;;;;;11.25;2.92;;;17.70;99.90;;;;;;4979571;28;20448;-73
2022/09/14 05:16:14;;;;;;;12.63;3.22;;;17.70;99.90;;;;;;4987263;28;20069;-67
2022/09/14 05:18:40;;;;;;;8.57;1.60;;;17.70;99.90;;;;;;4978019;28;20057;-72
2022/09/14 05:21:08;;;;;;;7.32;1.73;;;17.60;99.90;;;;;;4978991;28;20034;-73
2022/09/14 05:23:34;;;;;;;6.95;1.63;;;17.60;99.90;;;;;;4993150;28;20019;-72
2022/09/14 05:25:59;;;;;;;13.00;2.45;;;17.60;99.90;;;;;;4982377;28;20459;-69
2022/09/14 05:28:28;;;;;;;14.52;2.85;;;17.50;99.90;;;;;;4980213;28;20038;-74
2022/09/14 05:30:56;;;;;;;8.23;1.83;;;17.50;99.90;;;;;;4977507;28;20110;-73
2022/09/14 05:33:22;;;;;;;6.53;2.17;;;17.50;99.90;;;;;;4979791;28;20476;-76
2022/09/14 05:35:49;;;;;;;7.78;1.77;;;17.50;99.90;;;;;;4981270;28;20038;-74
2022/09/14 05:38:15;;;;;;;9.25;2.22;;;17.50;99.90;;;;;;4985163;28;20034;-74
2022/09/14 05:40:45;;;;;;;8.18;1.95;;;17.50;99.90;;;;;;4982339;28;20093;-71
2022/09/14 05:43:11;;;;;;;6.25;1.60;;;17.40;99.90;;;;;;4981219;28;20484;-74
2022/09/14 05:45:39;;;;;;;10.02;1.85;;;17.40;99.90;;;;;;4979621;28;20027;-73
2022/09/14 05:48:05;;;;;;;5.97;2.17;;;17.40;99.90;;;;;;4977460;28;20033;-77
2022/09/14 05:50:33;;;;;;;9.23;1.90;;;17.30;99.90;;;;;;4979809;28;20094;-69
2022/09/14 05:52:59;;;;;;;9.70;2.00;;;17.30;99.90;;;;;;4979199;28;20118;-73
2022/09/14 05:55:29;;;;;;;8.00;1.65;;;17.20;99.90;;;;;;4978146;28;20046;-76
2022/09/14 05:57:58;;;;;;;8.82;1.92;;;17.20;99.90;;;;;;4968144;28;20022;-73
2022/09/14 06:00:24;;;;;;;6.45;2.10;;;17.20;99.90;;;;;;4976060;28;20492;-74
2022/09/14 06:02:53;;;;;;;11.02;1.60;;;17.20;99.90;;;;;;4977667;28;20031;-73
2022/09/14 06:05:20;;;;;;;11.35;1.95;;;17.20;99.90;;;;;;4976734;28;20503;-71
2022/09/14 06:07:53;;;;;;;4.72;1.77;;;17.10;99.90;;;;;;4976940;28;20328;-75
2022/09/14 06:10:21;;;;;;;;;;;17.10;99.90;;;;;;4982992;28;20054;-74
2022/09/14 06:12:47;;;;;;;5.03;1.83;;;17.00;99.90;;;;;;4979687;28;19922;-74
2022/09/14 06:15:13;;;;;;;10.10;2.40;;;16.90;99.90;;;;;;4981157;28;20130;-73
2022/09/14 06:17:41;;;;;;;10.00;3.33;;;16.90;99.90;;;;;;4980849;28;20030;-73
2022/09/14 06:20:07;;;;;;;11.93;2.60;;;16.80;99.90;;;;;;4984368;28;20431;-75
2022/09/14 06:22:33;;;;;;;7.40;2.35;;;16.80;99.90;;;;;;4986746;28;20784;-74
2022/09/14 06:25:03;;;;;;;7.90;2.28;;;16.80;99.90;;;;;;4992070;28;20019;-72
2022/09/14 06:27:31;;;;;;;10.23;2.50;;;16.80;99.90;;;;;;4979283;28;20046;-73
2022/09/14 06:29:57;;;;;;;6.70;2.05;;;16.80;99.90;;;;;;4975703;28;20125;-73
2022/09/14 06:32:22;;;;;;;14.57;2.20;;;16.70;99.90;;;;;;4977281;28;20022;-73
2022/09/14 06:34:50;;;;;;;9.40;2.05;;;16.70;99.90;;;;;;4977336;28;20026;-73
2022/09/14 06:37:16;;;;;;;5.72;1.95;;;16.70;99.90;;;;;;4981840;28;20029;-75
2022/09/14 06:39:42;;;;;;;9.25;1.50;;;16.80;99.90;;;;;;4978433;28;20027;-71
2022/09/14 06:42:07;;;;;;;7.70;1.52;;;16.80;99.90;;;;;;4974119;28;20038;-73
2022/09/14 06:44:33;;;;;;;6.22;1.25;;;16.80;99.90;;;;;;4979903;28;20034;-73
2022/09/14 06:46:58;;;;;;;2.78;1.60;;;16.80;99.90;;;;;;4976040;28;20019;-74
2022/09/14 06:49:26;;;;;;;3.70;1.60;;;16.80;99.90;;;;;;4977058;28;20042;-74
2022/09/14 06:51:56;;;;;;;4.78;1.67;;;16.80;99.90;;;;;;4976887;28;20035;-73
2022/09/14 06:54:22;;;;;;;6.40;1.50;;;16.80;99.90;;;;;;4978348;28;20193;-72
2022/09/14 06:56:50;;;;;;;5.35;1.55;;;16.90;99.90;;;;;;4977116;28;20090;-72
2022/09/14 06:59:17;;;;;;;6.80;1.33;;;16.80;99.90;;;;;;4980698;28;20317;-73
2022/09/14 07:01:45;;;;;;;5.45;1.30;;;16.80;99.90;;;;;;4977320;28;20421;-72
2022/09/14 07:04:11;;;;;;;3.80;1.35;;;16.90;99.90;;;;;;4978352;28;20030;-73
2022/09/14 07:06:48;;;;;;;5.80;1.48;;;17.00;99.90;;;;;;4976498;28;20030;-73
2022/09/14 07:09:15;;;;;;;4.65;1.42;;;17.00;99.90;;;;;;4979474;28;20057;-73
2022/09/14 07:11:42;;;;;;;10.32;2.00;;;17.10;99.90;;;;;;4977054;28;20128;-73
2022/09/14 07:14:09;;;;;;;7.25;1.45;;;17.10;99.90;;;;;;4979423;28;20030;-71
2022/09/14 07:16:36;;;;;;;14.85;2.45;;;17.10;99.90;;;;;;4976288;28;20097;-73
2022/09/14 07:19:06;;;;;;;4.90;1.42;;;17.20;99.90;;;;;;4981339;28;20089;-74
2022/09/14 07:21:33;;;;;;;12.57;2.25;;;17.20;99.90;;;;;;4981517;28;20348;-75
2022/09/14 07:23:59;;;;;;;5.95;1.98;;;17.20;99.90;;;;;;4985911;28;20392;-74
2022/09/14 07:26:27;;;;;;;3.80;1.90;;;17.20;99.90;;;;;;4983029;28;20109;-74
2022/09/14 07:28:56;;;;;;;9.02;1.80;;;17.30;99.90;;;;;;4981205;28;20058;-74
2022/09/14 07:31:29;;;;;;;10.65;1.58;;;17.40;99.90;;;;;;4996952;28;20027;-74
2022/09/14 07:33:56;;;;;;;12.27;1.65;;;17.40;99.90;;;;;;4984132;28;20018;-74
2022/09/14 07:36:26;;;;;;;9.73;1.55;;;17.50;99.90;;;;;;4982016;28;20018;-76
2022/09/14 07:38:52;;;;;;;6.18;1.20;;;17.50;99.90;;;;;;4977189;28;20085;-74
2022/09/14 07:41:19;;;;;;;6.03;1.73;;;17.50;99.90;;;;;;4979164;28;20420;-75
2022/09/14 07:43:49;;;;;;;7.45;1.40;;;17.60;99.90;;;;;;4980571;28;20085;-75
2022/09/14 07:46:17;;;;;;;10.07;1.20;;;17.50;99.90;;;;;;4982784;28;20029;-75
2022/09/14 07:48:42;;;;;;;6.07;1.85;;;17.60;99.90;;;;;;4981789;28;20022;-72
2022/09/14 07:51:12;;;;;;;5.03;1.48;;;17.70;99.90;;;;;;4984323;28;20018;-73
2022/09/14 07:53:41;;;;;;;5.55;1.55;;;17.60;99.90;;;;;;5000094;28;20440;-73
2022/09/14 07:56:07;;;;;;;8.82;1.73;;;17.70;99.90;;;;;;4989471;28;20027;-74
2022/09/14 07:58:33;;;;;;;3.53;1.30;;;17.70;99.90;;;;;;4985430;28;20062;-71
2022/09/14 08:01:03;;;;;;;3.95;1.40;;;17.70;99.90;;;;;;4983218;28;20096;-74
2022/09/14 08:03:30;;;;;;;4.10;1.90;;;17.70;99.90;;;;;;4979812;28;20066;-74
2022/09/14 08:06:04;;;;;;;2.55;1.45;;;17.70;99.90;;;;;;4993351;28;20041;-68
2022/09/14 08:08:35;;;;;;;7.38;1.55;;;17.70;99.90;;;;;;4980463;28;20462;-73
2022/09/14 08:11:04;;;;;;;5.60;1.70;;;17.70;99.90;;;;;;4980916;28;20037;-75
2022/09/14 08:13:33;;;;;;;5.63;1.52;;;17.70;99.90;;;;;;4981994;28;20039;-74
2022/09/14 08:15:59;;;;;;;5.93;1.58;;;17.70;99.90;;;;;;4988307;28;20058;-72
2022/09/14 08:18:26;;;;;;;7.03;2.13;;;17.60;99.90;;;;;;4985455;28;20030;-74
2022/09/14 08:20:52;;;;;;;3.40;1.85;;;17.60;99.90;;;;;;4982364;28;20022;-71
2022/09/14 08:23:19;;;;;;;6.20;1.60;;;17.60;99.90;;;;;;4986989;28;20430;-76
2022/09/14 08:25:45;;;;;;;6.10;1.58;;;17.70;99.90;;;;;;4981126;28;20354;-76
2022/09/14 08:28:13;;;;;;;7.38;1.95;;;17.80;99.90;;;;;;4984948;28;20019;-76
2022/09/14 08:30:42;;;;;;;6.72;2.00;;;17.80;99.90;;;;;;4990061;28;20435;-79
2022/09/14 08:33:07;;;;;;;5.35;1.50;;;17.70;99.90;;;;;;4980737;28;20176;-72
2022/09/14 08:35:33;;;;;;;4.85;1.50;;;17.60;99.90;;;;;;4989706;28;20132;-73
2022/09/14 08:37:58;;;;;;;3.65;1.60;;;17.50;99.90;;;;;;4994800;28;20057;-73
2022/09/14 08:40:24;;;;;;;7.20;1.20;;;17.50;99.90;;;;;;4983335;28;20034;-69
2022/09/14 08:42:57;;;;;;;5.78;1.73;;;17.50;99.90;;;;;;4987289;28;20030;-74
2022/09/14 08:45:23;;;;;;;;;;;17.50;99.90;;;;;;4998687;28;20037;-73
2022/09/14 08:47:50;;;;;;;2.40;1.80;;;17.50;99.90;;;;;;4980640;28;19910;-72
2022/09/14 08:50:19;;;;;;;3.72;1.52;;;17.60;99.90;;;;;;4982671;28;20327;-74
2022/09/14 08:52:53;;;;;;;4.95;1.60;;;17.60;99.90;;;;;;4987449;28;20030;-74
2022/09/14 08:55:40;;;;;;;4.10;1.45;;;17.50;99.90;;;;;;4982705;28;20121;-76
2022/09/14 08:58:43;;;;;;;5.30;1.38;;;17.50;99.90;;;;;;4978642;28;20464;-75
2022/09/14 09:01:28;;;;;;;4.55;1.52;;;17.50;99.90;;;;;;4984513;28;20673;-74
2022/09/14 09:04:09;;;;;;;4.90;1.55;;;17.50;99.90;;;;;;4979283;28;20661;-72
2022/09/14 09:06:59;;;;;;;7.32;1.73;;;17.60;99.90;;;;;;4981118;28;20096;-72
2022/09/14 09:09:44;;;;;;;7.25;1.52;;;17.70;99.90;;;;;;4987297;28;20508;-74
2022/09/14 09:12:45;;;;;;;5.85;1.48;;;17.80;99.90;;;;;;4979892;28;20097;-73
2022/09/14 09:15:21;;;;;;;3.33;1.75;;;18.00;99.90;;;;;;4977685;28;20039;-75
2022/09/14 09:18:15;;;;;;;3.13;1.75;;;18.10;99.90;;;;;;4983817;28;20033;-74
2022/09/14 09:20:46;;;;;;;;;;;18.30;99.90;;;;;;4979307;28;20100;-68
2022/09/14 09:23:21;;;;;;;5.03;1.70;;;18.20;99.90;;;;;;4991973;28;19914;-74
2022/09/14 09:26:16;;;;;;;6.43;2.08;;;18.30;99.90;;;;;;4979617;28;20038;-68
2022/09/14 09:28:48;;;;;;;9.15;2.97;;;18.30;99.90;;;;;;4979253;28;20027;-76
2022/09/14 09:31:15;;;;;;;4.40;2.38;;;18.20;99.90;;;;;;4978778;28;20345;-74
2022/09/14 09:33:43;;;;;;;3.78;1.90;;;18.10;99.90;;;;;;4977145;28;20037;-72
2022/09/14 09:36:14;;;;;;;6.25;2.22;;;18.10;99.90;;;;;;4983424;28;20103;-77
2022/09/14 09:38:40;;;;;;;8.85;1.80;;;18.00;99.90;;;;;;4979054;28;20061;-74
2022/09/14 09:41:22;;;;;;;4.20;1.88;;;17.90;99.90;;;;;;4984861;28;20033;-75
2022/09/14 09:43:57;;;;;;;5.80;1.88;;;17.70;99.90;;;;;;4981879;28;20122;-77
2022/09/14 09:46:30;;;;;;;4.22;2.00;;;17.70;99.90;;;;;;4987886;28;20141;-76
2022/09/14 09:48:55;;;;;;;3.58;2.13;;;17.80;99.90;;;;;;4976870;28;20085;-75
2022/09/14 09:51:25;;;;;;;4.57;2.17;;;17.90;99.90;;;;;;4981617;28;20023;-75
2022/09/14 09:53:58;;;;;;;5.28;2.08;;;17.90;99.90;;;;;;4982872;28;20466;-75
2022/09/14 09:56:29;;;;;;;;;;;18.00;99.90;;;;;;4989251;28;20055;-72
2022/09/14 09:58:59;;;;;;;7.53;1.92;;;18.00;99.90;;;;;;4991101;28;19909;-73
2022/09/14 10:01:27;;;;;;;5.35;2.10;;;18.10;99.90;;;;;;4986306;28;20026;-74
2022/09/14 10:03:59;;;;;;;7.00;2.22;;;18.10;99.90;;;;;;4985464;28;20015;-74
2022/09/14 10:06:25;;;;;;;6.75;1.90;;;18.00;99.90;;;;;;4998674;28;20035;-71
2022/09/14 10:08:53;;;;;;;5.15;2.10;;;18.00;99.90;;;;;;4981844;28;20042;-73
2022/09/14 10:11:31;;;;;;;6.20;2.20;;;18.10;99.90;;;;;;4981770;28;20121;-71
2022/09/14 10:13:57;;;;;;;7.75;2.50;;;18.00;99.90;;;;;;4979996;28;20022;-74
2022/09/14 10:16:25;;;;;;;6.57;2.30;;;18.00;99.90;;;;;;4977635;28;20037;-74
2022/09/14 10:18:52;;;;;;;8.18;2.30;;;18.00;99.90;;;;;;4978919;28;20022;-73
2022/09/14 10:21:22;;;;;;;5.40;2.20;;;18.00;99.90;;;;;;4981040;28;20023;-74
2022/09/14 10:24:14;;;;;;;5.28;2.10;;;18.00;99.90;;;;;;4979677;28;20125;-73
2022/09/14 10:26:40;;;;;;;8.13;2.58;;;18.00;99.90;;;;;;4978817;28;20109;-72
2022/09/14 10:29:40;;;;;;;6.70;2.20;;;18.00;99.90;;;;;;4980890;28;20173;-72
2022/09/14 10:32:25;;;;;;;5.72;2.53;;;17.90;99.90;;;;;;4978487;28;20023;-73
2022/09/14 10:34:51;;;;;;;9.27;2.42;;;17.90;99.90;;;;;;4978398;28;20019;-72
2022/09/14 10:37:23;;;;;;;4.35;2.20;;;17.80;99.90;;;;;;4979248;28;20106;-69
2022/09/14 10:40:04;;;;;;;7.63;2.47;;;17.90;99.90;;;;;;4978845;28;20027;-73
2022/09/14 10:42:53;;;;;;;5.43;2.35;;;17.90;99.90;;;;;;4978294;28;20722;-74
2022/09/14 10:45:36;;;;;;;4.63;2.65;;;18.00;99.90;;;;;;4982528;28;20034;-72
2022/09/14 10:48:20;;;;;;;9.57;2.78;;;18.00;99.90;;;;;;4976360;28;20015;-74
2022/09/14 10:51:19;;;;;;;10.77;2.88;;;18.00;99.90;;;;;;4978580;28;20030;-73
2022/09/14 10:53:54;;;;;;;6.47;2.58;;;17.90;99.90;;;;;;4980268;28;20468;-74
2022/09/14 10:56:25;;;;;;;5.07;2.67;;;17.90;99.90;;;;;;4984245;28;20015;-74
2022/09/14 10:59:08;;;;;;;4.43;2.17;;;17.80;99.90;;;;;;4982444;28;20034;-74
2022/09/14 11:01:49;;;;;;;5.00;2.53;;;17.90;99.90;;;;;;4979573;28;20356;-73
2022/09/14 11:04:56;;;;;;;10.05;2.90;;;17.90;99.90;;;;;;4985053;28;20030;-73
2022/09/14 11:07:57;;;;;;;5.72;3.20;;;18.00;99.90;;;;;;4984524;28;20049;-74
2022/09/14 11:10:44;;;;;;;6.93;3.30;;;18.00;99.90;;;;;;4961567;28;20035;-73
2022/09/14 11:13:29;;;;;;;9.13;3.65;;;18.00;99.90;;;;;;4961305;28;20053;-73
2022/09/14 11:15:55;;;;;;;9.90;3.55;;;18.00;99.90;;;;;;4962546;28;20031;-73
2022/09/14 11:18:27;;;;;;;8.63;3.42;;;17.90;99.90;;;;;;4964460;28;20035;-74
2022/09/14 11:21:09;;;;;;;10.23;3.67;;;17.90;99.90;;;;;;4962255;28;20054;-71
2022/09/14 11:23:46;;;;;;;6.90;3.53;;;18.00;99.90;;;;;;4962534;28;20571;-70
2022/09/14 11:26:50;;;;;;;7.45;2.78;;;18.00;99.90;;;;;;4961014;28;20441;-74
2022/09/14 11:29:20;;;;;;;;;;;18.00;99.90;;;;;;4899060;29;20541;-71
2022/09/14 11:31:58;;;;;;;6.60;2.72;;;17.90;99.90;;;;;;4952638;28;19928;-73
2022/09/14 11:34:42;;;;;;;4.57;3.05;;;17.90;99.90;;;;;;4965418;28;20055;-73
2022/09/14 11:37:13;;;;;;;7.13;3.50;;;17.80;99.90;;;;;;4963322;28;20038;-75
2022/09/14 11:40:18;;;;;;;7.50;2.95;;;17.80;99.90;;;;;;4952954;28;20035;-73
2022/09/14 11:43:08;;;;;;;5.95;3.15;;;17.80;99.90;;;;;;4959329;28;20074;-72
2022/09/14 11:45:41;;;;;;;8.07;2.70;;;17.70;99.90;;;;;;4959784;28;20031;-74
2022/09/14 11:48:23;;;;;;;4.95;2.83;;;17.70;99.90;;;;;;4981287;28;20035;-74
2022/09/14 11:51:03;;;;;;;5.70;2.97;;;17.60;99.90;;;;;;4982259;28;20030;-75
2022/09/14 11:53:31;;;;;;;7.93;3.13;;;17.40;99.90;;;;;;4976565;28;20050;-74
2022/09/14 11:55:57;;;;;;;6.35;3.40;;;17.10;99.90;;;;;;4984385;28;20045;-72
2022/09/14 11:58:28;;;;;;;4.78;3.22;;;16.80;99.90;;;;;;4979285;28;20030;-74
2022/09/14 12:01:02;;;;;;;5.53;3.67;;;16.70;99.90;;;;;;4985172;28;20034;-71
2022/09/14 12:03:51;;;;;;;10.30;3.45;;;16.50;99.90;;;;;;4977626;28;20435;-71
2022/09/14 12:06:29;;;;;;;4.70;3.85;;;16.60;99.90;;;;;;4983335;28;20105;-73
2022/09/14 12:09:16;;;;;;;8.85;3.67;;;16.60;99.90;;;;;;4983022;28;20014;-72
2022/09/14 12:11:43;;;;;;;6.40;3.85;;;16.70;99.90;;;;;;4990392;28;20026;-71
2022/09/14 12:14:19;;;;;;;7.72;3.55;;;16.70;99.90;;;;;;4983163;28;20037;-73
2022/09/14 12:17:13;;;;;;;4.50;2.05;;;16.70;99.90;;;;;;4983173;28;20439;-73
2022/09/14 12:19:42;;;;;;;7.28;1.83;;;16.70;99.90;;;;;;4979539;28;20057;-74
2022/09/14 12:22:33;;;;;;;8.30;1.73;;;16.70;99.90;;;;;;4988389;28;20019;-72
2022/09/14 12:25:04;;;;;;;5.63;1.75;;;16.70;99.90;;;;;;4985780;28;20393;-71
2022/09/14 12:27:35;;;;;;;7.57;1.85;;;16.60;99.90;;;;;;4984399;28;20443;-74
2022/09/14 12:30:02;;;;;;;7.18;1.70;;;16.70;99.90;;;;;;4979686;28;20069;-72
2022/09/14 12:32:27;;;;;;;3.90;1.85;;;16.70;99.90;;;;;;4986451;28;20364;-69
2022/09/14 12:35:32;;;;;;;6.13;2.10;;;16.70;99.90;;;;;;4979944;28;20030;-72
2022/09/14 12:37:58;;;;;;;7.68;1.98;;;16.70;99.90;;;;;;4983921;28;20136;-71
2022/09/14 12:40:36;;;;;;;4.53;2.33;;;16.70;99.90;;;;;;4979631;28;20046;-71
2022/09/14 12:43:33;;;;;;;7.40;2.67;;;16.80;99.90;;;;;;4979805;28;20527;-73
2022/09/14 12:46:20;;;;;;;4.30;2.35;;;16.80;99.90;;;;;;4973522;28;20049;-72
2022/09/14 12:48:53;;;;;;;5.40;2.47;;;16.90;99.90;;;;;;4976189;28;20029;-71
2022/09/14 12:51:28;;;;;;;;;;;17.00;99.90;;;;;;4985135;28;20035;-72
2022/09/14 12:54:18;;;;;;;10.48;2.60;;;17.00;99.90;;;;;;4999089;28;19986;-70
2022/09/14 12:57:04;;;;;;;5.85;2.20;;;17.00;99.90;;;;;;4989056;28;20026;-73
2022/09/14 12:59:46;;;;;;;3.25;2.10;;;16.80;99.90;;;;;;4979516;28;20041;-72
2022/09/14 13:02:33;;;;;;;4.63;2.50;;;16.80;99.90;;;;;;4979307;28;20081;-71
2022/09/14 13:05:02;;;;;;;4.05;2.10;;;16.90;99.90;;;;;;4978542;28;20015;-72
2022/09/14 13:07:34;;;;;;;6.90;2.50;;;16.90;99.90;;;;;;4978975;28;20512;-72
2022/09/14 13:10:01;;;;;;;;;;;16.90;99.90;;;;;;4985891;28;20027;-72
2022/09/14 13:12:38;;;;;;;5.45;2.35;;;16.90;99.90;;;;;;4985935;28;19976;-74
2022/09/14 13:15:17;;;;;;;3.53;2.50;;;16.90;99.90;;;;;;4983108;28;20026;-75
2022/09/14 13:18:08;;;;;;;5.43;2.70;;;16.90;99.90;;;;;;4984543;28;20857;-74